sensor_id;sensor_type;location;lat;lon;timestamp;pressure;altitude;pressure_sealevel;temperature;humidity
57990;BME280;58373;51.824;5.564;2023-04-04T00:01:30;102958.78;;;1.81;67.49
57990;BME280;58373;51.824;5.564;2023-04-04T00:03:55;102956.28;;;1.75;67.20
57990;BME280;58373;51.824;5.564;2023-04-04T00:06:21;102946.94;;;1.72;67.79
57990;BME280;58373;51.824;5.564;2023-04-04T00:08:46;102949.56;;;1.68;67.88
57990;BME280;58373;51.824;5.564;2023-04-04T00:11:12;102952.13;;;1.65;67.72
57990;BME280;58373;51.824;5.564;2023-04-04T00:13:37;102954.69;;;1.65;67.78
57990;BME280;58373;51.824;5.564;2023-04-04T00:16:03;102954.69;;;1.65;68.40
57990;BME280;58373;51.824;5.564;2023-04-04T00:18:29;102944.44;;;1.65;67.72
57990;BME280;58373;51.824;5.564;2023-04-04T00:20:55;102948.69;;;1.66;67.97
57990;BME280;58373;51.824;5.564;2023-04-04T00:23:20;102953.81;;;1.66;68.15
57990;BME280;58373;51.824;5.564;2023-04-04T00:25:49;102958.13;;;1.64;68.35
57990;BME280;58373;51.824;5.564;2023-04-04T00:28:15;102951.31;;;1.63;68.57
57990;BME280;58373;51.824;5.564;2023-04-04T00:30:40;102951.31;;;1.63;68.71
57990;BME280;58373;51.824;5.564;2023-04-04T00:33:06;102947.88;;;1.64;68.61
57990;BME280;58373;51.824;5.564;2023-04-04T00:35:31;102946.19;;;1.63;68.33
57990;BME280;58373;51.824;5.564;2023-04-04T00:37:56;102949.56;;;1.65;68.97
57990;BME280;58373;51.824;5.564;2023-04-04T00:40:22;102939.34;;;1.65;68.46
57990;BME280;58373;51.824;5.564;2023-04-04T00:42:47;102947.00;;;1.65;68.56
57990;BME280;58373;51.824;5.564;2023-04-04T00:45:12;102945.31;;;1.65;68.28
57990;BME280;58373;51.824;5.564;2023-04-04T00:47:38;102938.53;;;1.63;68.89
57990;BME280;58373;51.824;5.564;2023-04-04T00:50:03;102939.38;;;1.62;68.48
57990;BME280;58373;51.824;5.564;2023-04-04T00:52:29;102935.97;;;1.59;68.82
57990;BME280;58373;51.824;5.564;2023-04-04T00:54:54;102925.78;;;1.56;68.16
57990;BME280;58373;51.824;5.564;2023-04-04T00:57:20;102923.25;;;1.55;68.48
57990;BME280;58373;51.824;5.564;2023-04-04T00:59:46;102924.13;;;1.52;68.74
57990;BME280;58373;51.824;5.564;2023-04-04T01:02:11;102915.63;;;1.50;68.28
57990;BME280;58373;51.824;5.564;2023-04-04T01:04:37;102915.66;;;1.47;68.73
57990;BME280;58373;51.824;5.564;2023-04-04T01:07:02;102920.75;;;1.47;69.02
57990;BME280;58373;51.824;5.564;2023-04-04T01:09:28;102922.44;;;1.48;68.83
57990;BME280;58373;51.824;5.564;2023-04-04T01:11:54;102920.75;;;1.47;68.76
57990;BME280;58373;51.824;5.564;2023-04-04T01:14:19;102919.13;;;1.42;68.71
57990;BME280;58373;51.824;5.564;2023-04-04T01:16:44;102926.75;;;1.43;68.52
57990;BME280;58373;51.824;5.564;2023-04-04T01:19:12;102920.81;;;1.41;68.78
57990;BME280;58373;51.824;5.564;2023-04-04T01:21:38;102932.78;;;1.39;69.37
57990;BME280;58373;51.824;5.564;2023-04-04T01:24:04;102919.16;;;1.37;68.85
57990;BME280;58373;51.824;5.564;2023-04-04T01:26:30;102918.34;;;1.35;69.12
57990;BME280;58373;51.824;5.564;2023-04-04T01:28:56;102919.19;;;1.34;69.17
57990;BME280;58373;51.824;5.564;2023-04-04T01:31:25;102924.34;;;1.32;69.21
57990;BME280;58373;51.824;5.564;2023-04-04T01:34:03;102922.63;;;1.30;69.65
57990;BME280;58373;51.824;5.564;2023-04-04T01:36:31;102921.81;;;1.28;69.20
57990;BME280;58373;51.824;5.564;2023-04-04T01:41:45;102922.69;;;1.24;69.46
57990;BME280;58373;51.824;5.564;2023-04-04T01:44:11;102919.31;;;1.22;68.91
57990;BME280;58373;51.824;5.564;2023-04-04T01:46:39;102921.00;;;1.20;69.07
57990;BME280;58373;51.824;5.564;2023-04-04T01:49:05;102916.75;;;1.20;68.91
57990;BME280;58373;51.824;5.564;2023-04-04T01:51:30;102917.63;;;1.18;69.53
57990;BME280;58373;51.824;5.564;2023-04-04T01:53:55;102920.19;;;1.15;69.86
57990;BME280;58373;51.824;5.564;2023-04-04T01:56:21;102921.06;;;1.14;69.32
57990;BME280;58373;51.824;5.564;2023-04-04T01:58:46;102925.34;;;1.12;69.60
57990;BME280;58373;51.824;5.564;2023-04-04T02:01:12;102921.13;;;1.11;69.73
57990;BME280;58373;51.824;5.564;2023-04-04T02:03:38;102916.00;;;1.08;69.65
57990;BME280;58373;51.824;5.564;2023-04-04T02:06:03;102923.69;;;1.06;69.29
57990;BME280;58373;51.824;5.564;2023-04-04T02:08:28;102925.44;;;1.04;69.70
57990;BME280;58373;51.824;5.564;2023-04-04T02:10:56;102927.97;;;1.02;69.76
57990;BME280;58373;51.824;5.564;2023-04-04T02:13:21;102929.72;;;1.00;69.88
57990;BME280;58373;51.824;5.564;2023-04-04T02:15:46;102929.75;;;0.94;69.65
57990;BME280;58373;51.824;5.564;2023-04-04T02:18:11;102926.34;;;0.94;70.20
57990;BME280;58373;51.824;5.564;2023-04-04T02:20:36;102923.81;;;0.92;69.84
57990;BME280;58373;51.824;5.564;2023-04-04T02:23:02;102928.06;;;0.90;70.23
57990;BME280;58373;51.824;5.564;2023-04-04T02:25:27;102926.38;;;0.89;70.62
57990;BME280;58373;51.824;5.564;2023-04-04T02:27:53;102928.94;;;0.89;70.11
57990;BME280;58373;51.824;5.564;2023-04-04T02:30:18;102934.06;;;0.88;70.69
57990;BME280;58373;51.824;5.564;2023-04-04T02:32:43;102936.66;;;0.86;70.22
57990;BME280;58373;51.824;5.564;2023-04-04T02:35:09;102926.44;;;0.83;70.39
57990;BME280;58373;51.824;5.564;2023-04-04T02:37:34;102928.16;;;0.81;70.98
57990;BME280;58373;51.824;5.564;2023-04-04T02:39:59;102926.44;;;0.80;70.57
57990;BME280;58373;51.824;5.564;2023-04-04T02:42:24;102929.84;;;0.79;70.68
57990;BME280;58373;51.824;5.564;2023-04-04T02:44:50;102925.59;;;0.79;70.78
57990;BME280;58373;51.824;5.564;2023-04-04T02:47:15;102929.84;;;0.79;70.97
57990;BME280;58373;51.824;5.564;2023-04-04T02:49:41;102920.50;;;0.78;70.59
57990;BME280;58373;51.824;5.564;2023-04-04T02:52:06;102915.41;;;0.76;70.56
57990;BME280;58373;51.824;5.564;2023-04-04T02:54:32;102919.69;;;0.76;70.85
57990;BME280;58373;51.824;5.564;2023-04-04T02:56:57;102926.47;;;0.74;70.47
57990;BME280;58373;51.824;5.564;2023-04-04T02:59:22;102922.22;;;0.74;70.77
57990;BME280;58373;51.824;5.564;2023-04-04T03:01:48;102916.28;;;0.72;70.80
57990;BME280;58373;51.824;5.564;2023-04-04T03:04:13;102916.31;;;0.71;70.36
57990;BME280;58373;51.824;5.564;2023-04-04T03:06:38;102914.63;;;0.70;70.87
57990;BME280;58373;51.824;5.564;2023-04-04T03:09:05;102907.78;;;0.69;71.03
57990;BME280;58373;51.824;5.564;2023-04-04T03:11:30;102917.19;;;0.65;70.88
57990;BME280;58373;51.824;5.564;2023-04-04T03:13:55;102901.88;;;0.65;70.91
57990;BME280;58373;51.824;5.564;2023-04-04T03:16:21;102904.44;;;0.64;70.46
57990;BME280;58373;51.824;5.564;2023-04-04T03:18:46;102900.19;;;0.61;70.84
57990;BME280;58373;51.824;5.564;2023-04-04T03:21:11;102906.19;;;0.59;71.00
57990;BME280;58373;51.824;5.564;2023-04-04T03:23:37;102904.50;;;0.55;70.96
57990;BME280;58373;51.824;5.564;2023-04-04T03:26:02;102895.16;;;0.52;71.03
57990;BME280;58373;51.824;5.564;2023-04-04T03:28:28;102899.44;;;0.48;71.33
57990;BME280;58373;51.824;5.564;2023-04-04T03:30:53;102887.53;;;0.47;71.23
57990;BME280;58373;51.824;5.564;2023-04-04T03:33:18;102887.53;;;0.44;72.07
57990;BME280;58373;51.824;5.564;2023-04-04T03:35:43;102889.22;;;0.45;71.46
57990;BME280;58373;51.824;5.564;2023-04-04T03:38:09;102896.06;;;0.43;71.80
57990;BME280;58373;51.824;5.564;2023-04-04T03:40:34;102899.47;;;0.42;72.16
57990;BME280;58373;51.824;5.564;2023-04-04T03:42:59;102900.31;;;0.40;71.99
57990;BME280;58373;51.824;5.564;2023-04-04T03:45:26;102902.91;;;0.35;71.73
57990;BME280;58373;51.824;5.564;2023-04-04T03:47:51;102902.91;;;0.35;71.79
57990;BME280;58373;51.824;5.564;2023-04-04T03:50:16;102898.66;;;0.34;71.92
57990;BME280;58373;51.824;5.564;2023-04-04T03:52:42;102900.34;;;0.34;71.79
57990;BME280;58373;51.824;5.564;2023-04-04T03:55:07;102894.41;;;0.33;71.69
57990;BME280;58373;51.824;5.564;2023-04-04T03:57:32;102891.84;;;0.33;72.05
57990;BME280;58373;51.824;5.564;2023-04-04T03:59:58;102894.41;;;0.33;71.59
57990;BME280;58373;51.824;5.564;2023-04-04T04:02:23;102891.03;;;0.31;72.31
57990;BME280;58373;51.824;5.564;2023-04-04T04:04:48;102868.97;;;0.24;72.39
57990;BME280;58373;51.824;5.564;2023-04-04T04:07:13;102881.69;;;0.25;72.26
57990;BME280;58373;51.824;5.564;2023-04-04T04:09:39;102884.28;;;0.24;72.77
57990;BME280;58373;51.824;5.564;2023-04-04T04:12:04;102892.78;;;0.24;72.18
57990;BME280;58373;51.824;5.564;2023-04-04T04:14:30;102887.66;;;0.26;72.54
57990;BME280;58373;51.824;5.564;2023-04-04T04:16:55;102882.53;;;0.26;72.07
57990;BME280;58373;51.824;5.564;2023-04-04T04:19:20;102892.75;;;0.23;72.78
57990;BME280;58373;51.824;5.564;2023-04-04T04:21:46;102884.28;;;0.21;72.80
57990;BME280;58373;51.824;5.564;2023-04-04T04:24:11;102886.84;;;0.18;72.86
57990;BME280;58373;51.824;5.564;2023-04-04T04:26:37;102891.97;;;0.18;72.76
57990;BME280;58373;51.824;5.564;2023-04-04T04:29:02;102902.16;;;0.16;72.81
57990;BME280;58373;51.824;5.564;2023-04-04T04:31:27;102897.91;;;0.14;72.93
57990;BME280;58373;51.824;5.564;2023-04-04T04:33:53;102903.03;;;0.11;72.78
57990;BME280;58373;51.824;5.564;2023-04-04T04:36:18;102903.06;;;0.08;72.76
57990;BME280;58373;51.824;5.564;2023-04-04T04:38:43;102904.75;;;0.06;73.32
57990;BME280;58373;51.824;5.564;2023-04-04T04:41:08;102907.31;;;0.03;73.18
57990;BME280;58373;51.824;5.564;2023-04-04T04:43:33;102906.50;;;-0.03;73.14
57990;BME280;58373;51.824;5.564;2023-04-04T04:46:01;102909.88;;;-0.01;73.17
57990;BME280;58373;51.824;5.564;2023-04-04T04:48:26;102905.63;;;-0.02;73.78
57990;BME280;58373;51.824;5.564;2023-04-04T04:50:51;102903.13;;;-0.05;74.01
57990;BME280;58373;51.824;5.564;2023-04-04T04:53:17;102902.25;;;-0.08;73.59
57990;BME280;58373;51.824;5.564;2023-04-04T04:55:42;102892.06;;;-0.13;73.93
57990;BME280;58373;51.824;5.564;2023-04-04T04:58:08;102900.59;;;-0.15;74.56
57990;BME280;58373;51.824;5.564;2023-04-04T05:00:34;102899.75;;;-0.19;74.60
57990;BME280;58373;51.824;5.564;2023-04-04T05:03:00;102909.97;;;-0.20;74.84
57990;BME280;58373;51.824;5.564;2023-04-04T05:05:26;102903.19;;;-0.23;75.13
57990;BME280;58373;51.824;5.564;2023-04-04T05:07:51;102898.09;;;-0.23;75.10
57990;BME280;58373;51.824;5.564;2023-04-04T05:10:16;102894.69;;;-0.22;74.67
57990;BME280;58373;51.824;5.564;2023-04-04T05:12:42;102906.56;;;-0.21;74.79
57990;BME280;58373;51.824;5.564;2023-04-04T05:15:08;102910.81;;;-0.20;74.64
57990;BME280;58373;51.824;5.564;2023-04-04T05:17:34;102913.34;;;-0.20;74.76
57990;BME280;58373;51.824;5.564;2023-04-04T05:19:59;102914.22;;;-0.19;75.24
57990;BME280;58373;51.824;5.564;2023-04-04T05:22:24;102916.75;;;-0.24;76.36
57990;BME280;58373;51.824;5.564;2023-04-04T05:24:50;102924.44;;;-0.29;76.67
57990;BME280;58373;51.824;5.564;2023-04-04T05:27:16;102924.44;;;-0.36;77.36
57990;BME280;58373;51.824;5.564;2023-04-04T05:29:41;102924.47;;;-0.39;76.14
57990;BME280;58373;51.824;5.564;2023-04-04T05:32:06;102920.19;;;-0.40;76.90
57990;BME280;58373;51.824;5.564;2023-04-04T05:34:31;102919.34;;;-0.36;76.43
57990;BME280;58373;51.824;5.564;2023-04-04T05:36:57;102923.59;;;-0.35;75.88
57990;BME280;58373;51.824;5.564;2023-04-04T05:39:22;102915.13;;;-0.34;75.92
57990;BME280;58373;51.824;5.564;2023-04-04T05:41:48;102917.63;;;-0.31;76.12
57990;BME280;58373;51.824;5.564;2023-04-04T05:44:13;102920.19;;;-0.28;76.28
57990;BME280;58373;51.824;5.564;2023-04-04T05:46:38;102915.91;;;-0.24;76.63
57990;BME280;58373;51.824;5.564;2023-04-04T05:49:03;102919.31;;;-0.21;75.88
57990;BME280;58373;51.824;5.564;2023-04-04T05:51:29;102930.34;;;-0.19;75.98
57990;BME280;58373;51.824;5.564;2023-04-04T05:53:54;102926.09;;;-0.15;75.65
57990;BME280;58373;51.824;5.564;2023-04-04T05:56:19;102926.91;;;-0.12;76.02
57990;BME280;58373;51.824;5.564;2023-04-04T05:58:45;102932.84;;;-0.07;75.96
57990;BME280;58373;51.824;5.564;2023-04-04T06:01:11;102920.09;;;-0.04;75.96
57990;BME280;58373;51.824;5.564;2023-04-04T06:03:36;102923.50;;;0.00;75.80
57990;BME280;58373;51.824;5.564;2023-04-04T06:06:01;102931.97;;;0.04;75.76
57990;BME280;58373;51.824;5.564;2023-04-04T06:08:28;102920.06;;;0.06;75.34
57990;BME280;58373;51.824;5.564;2023-04-04T06:10:54;102929.44;;;0.07;75.47
57990;BME280;58373;51.824;5.564;2023-04-04T06:13:20;102930.25;;;0.09;76.02
57990;BME280;58373;51.824;5.564;2023-04-04T06:15:45;102931.09;;;0.11;75.57
57990;BME280;58373;51.824;5.564;2023-04-04T06:18:10;102935.38;;;0.12;76.30
57990;BME280;58373;51.824;5.564;2023-04-04T06:20:35;102933.66;;;0.14;76.52
57990;BME280;58373;51.824;5.564;2023-04-04T06:23:00;102934.50;;;0.17;76.16
57990;BME280;58373;51.824;5.564;2023-04-04T06:25:28;102931.94;;;0.19;76.82
57990;BME280;58373;51.824;5.564;2023-04-04T06:27:54;102929.34;;;0.25;76.45
57990;BME280;58373;51.824;5.564;2023-04-04T06:30:19;102932.72;;;0.30;76.32
57990;BME280;58373;51.824;5.564;2023-04-04T06:32:44;102936.09;;;0.34;76.10
57990;BME280;58373;51.824;5.564;2023-04-04T06:35:09;102936.94;;;0.37;76.22
57990;BME280;58373;51.824;5.564;2023-04-04T06:37:35;102937.78;;;0.41;76.47
57990;BME280;58373;51.824;5.564;2023-04-04T06:40:00;102935.19;;;0.45;76.07
57990;BME280;58373;51.824;5.564;2023-04-04T06:42:25;102931.75;;;0.51;75.03
57990;BME280;58373;51.824;5.564;2023-04-04T06:44:51;102923.19;;;0.57;75.31
57990;BME280;58373;51.824;5.564;2023-04-04T06:47:16;102927.44;;;0.64;76.07
57990;BME280;58373;51.824;5.564;2023-04-04T06:49:41;102927.38;;;0.70;75.57
57990;BME280;58373;51.824;5.564;2023-04-04T06:52:06;102933.28;;;0.78;75.91
57990;BME280;58373;51.824;5.564;2023-04-04T06:54:31;102948.56;;;0.84;75.86
57990;BME280;58373;51.824;5.564;2023-04-04T06:56:57;102940.00;;;0.91;75.37
57990;BME280;58373;51.824;5.564;2023-04-04T06:59:22;102935.69;;;0.99;75.47
57990;BME280;58373;51.824;5.564;2023-04-04T07:01:47;102945.81;;;1.09;76.25
57990;BME280;58373;51.824;5.564;2023-04-04T07:04:12;102947.47;;;1.16;75.53
57990;BME280;58373;51.824;5.564;2023-04-04T07:06:38;102941.41;;;1.26;75.57
57990;BME280;58373;51.824;5.564;2023-04-04T07:09:03;102944.75;;;1.34;75.32
57990;BME280;58373;51.824;5.564;2023-04-04T07:11:28;102942.97;;;1.42;75.47
57990;BME280;58373;51.824;5.564;2023-04-04T07:13:54;102946.31;;;1.50;74.78
57990;BME280;58373;51.824;5.564;2023-04-04T07:16:19;102944.53;;;1.58;75.26
57990;BME280;58373;51.824;5.564;2023-04-04T07:18:45;102958.09;;;1.67;74.30
57990;BME280;58373;51.824;5.564;2023-04-04T07:21:10;102949.50;;;1.74;75.20
57990;BME280;58373;51.824;5.564;2023-04-04T07:23:35;102956.22;;;1.84;74.30
57990;BME280;58373;51.824;5.564;2023-04-04T07:26:00;102952.72;;;1.91;74.50
57990;BME280;58373;51.824;5.564;2023-04-04T07:28:26;102956.88;;;2.01;74.27
57990;BME280;58373;51.824;5.564;2023-04-04T07:30:51;102940.56;;;2.08;74.19
57990;BME280;58373;51.824;5.564;2023-04-04T07:33:17;102943.00;;;2.18;73.71
57990;BME280;58373;51.824;5.564;2023-04-04T07:35:42;102942.00;;;2.28;72.77
57990;BME280;58373;51.824;5.564;2023-04-04T07:38:07;102936.81;;;2.34;72.36
57990;BME280;58373;51.824;5.564;2023-04-04T07:40:33;102940.16;;;2.39;72.66
57990;BME280;58373;51.824;5.564;2023-04-04T07:42:58;102941.75;;;2.46;71.99
57990;BME280;58373;51.824;5.564;2023-04-04T07:45:23;102941.66;;;2.52;71.70
57990;BME280;58373;51.824;5.564;2023-04-04T07:47:49;102951.75;;;2.66;70.21
57990;BME280;58373;51.824;5.564;2023-04-04T07:50:14;102946.59;;;2.67;71.39
57990;BME280;58373;51.824;5.564;2023-04-04T07:52:40;102935.38;;;2.76;70.79
57990;BME280;58373;51.824;5.564;2023-04-04T07:55:06;102941.16;;;2.89;70.91
57990;BME280;58373;51.824;5.564;2023-04-04T07:57:32;102937.50;;;3.02;70.53
57990;BME280;58373;51.824;5.564;2023-04-04T07:59:57;102937.31;;;3.14;70.26
57990;BME280;58373;51.824;5.564;2023-04-04T08:02:22;102935.41;;;3.26;69.32
57990;BME280;58373;51.824;5.564;2023-04-04T08:04:47;102936.94;;;3.36;69.86
57990;BME280;58373;51.824;5.564;2023-04-04T08:07:12;102943.63;;;3.46;70.64
57990;BME280;58373;51.824;5.564;2023-04-04T08:09:38;102937.38;;;3.59;68.85
57990;BME280;58373;51.824;5.564;2023-04-04T08:12:03;102938.09;;;3.67;67.57
57990;BME280;58373;51.824;5.564;2023-04-04T08:14:30;102946.66;;;3.66;65.96
57990;BME280;58373;51.824;5.564;2023-04-04T08:16:55;102946.50;;;3.76;67.77
57990;BME280;58373;51.824;5.564;2023-04-04T08:19:21;102939.56;;;3.81;66.46
57990;BME280;58373;51.824;5.564;2023-04-04T08:21:47;102937.75;;;3.86;64.27
57990;BME280;58373;51.824;5.564;2023-04-04T08:24:12;102928.19;;;3.92;64.41
57990;BME280;58373;51.824;5.564;2023-04-04T08:26:37;102929.75;;;3.99;65.86
57990;BME280;58373;51.824;5.564;2023-04-04T08:29:02;102929.56;;;4.09;66.46
57990;BME280;58373;51.824;5.564;2023-04-04T08:31:28;102926.88;;;4.15;63.29
57990;BME280;58373;51.824;5.564;2023-04-04T08:33:53;102934.41;;;4.22;65.20
57990;BME280;58373;51.824;5.564;2023-04-04T08:36:19;102935.16;;;4.28;65.34
57990;BME280;58373;51.824;5.564;2023-04-04T08:38:44;102928.22;;;4.33;64.05
57990;BME280;58373;51.824;5.564;2023-04-04T08:41:13;102931.38;;;4.44;64.49
57990;BME280;58373;51.824;5.564;2023-04-04T08:43:39;102928.63;;;4.53;59.88
57990;BME280;58373;51.824;5.564;2023-04-04T08:46:06;102922.50;;;4.57;61.41
57990;BME280;58373;51.824;5.564;2023-04-04T08:48:32;102925.78;;;4.65;60.99
57990;BME280;58373;51.824;5.564;2023-04-04T08:50:58;102935.03;;;4.72;59.75
57990;BME280;58373;51.824;5.564;2023-04-04T08:53:24;102937.38;;;4.82;60.06
57990;BME280;58373;51.824;5.564;2023-04-04T08:55:50;102932.94;;;4.88;59.36
57990;BME280;58373;51.824;5.564;2023-04-04T08:58:16;102930.25;;;4.93;59.88
57990;BME280;58373;51.824;5.564;2023-04-04T09:00:41;102926.81;;;4.94;57.22
57990;BME280;58373;51.824;5.564;2023-04-04T09:05:38;102926.56;;;5.03;57.37
57990;BME280;58373;51.824;5.564;2023-04-04T09:08:03;102929.03;;;5.07;56.14
57990;BME280;58373;51.824;5.564;2023-04-04T09:10:30;102928.78;;;5.18;58.91
57990;BME280;58373;51.824;5.564;2023-04-04T09:12:55;102923.50;;;5.23;58.10
57990;BME280;58373;51.824;5.564;2023-04-04T09:15:21;102929.34;;;5.29;56.35
57990;BME280;58373;51.824;5.564;2023-04-04T09:17:47;102931.03;;;5.30;54.30
57990;BME280;58373;51.824;5.564;2023-04-04T09:22:56;102917.94;;;5.38;56.25
57990;BME280;58373;51.824;5.564;2023-04-04T09:25:21;102922.03;;;5.47;55.77
57990;BME280;58373;51.824;5.564;2023-04-04T09:27:46;102920.25;;;5.49;55.55
57990;BME280;58373;51.824;5.564;2023-04-04T09:30:13;102920.19;;;5.52;56.12
57990;BME280;58373;51.824;5.564;2023-04-04T09:32:39;102919.00;;;5.64;55.19
57990;BME280;58373;51.824;5.564;2023-04-04T09:35:05;102917.81;;;5.75;55.74
57990;BME280;58373;51.824;5.564;2023-04-04T09:37:30;102917.81;;;5.75;53.37
57990;BME280;58373;51.824;5.564;2023-04-04T09:39:56;102914.34;;;5.76;54.95
57990;BME280;58373;51.824;5.564;2023-04-04T09:42:21;102912.31;;;5.88;55.61
57990;BME280;58373;51.824;5.564;2023-04-04T09:44:48;102909.53;;;5.97;54.40
57990;BME280;58373;51.824;5.564;2023-04-04T09:49:48;102919.00;;;5.95;52.20
57990;BME280;58373;51.824;5.564;2023-04-04T09:52:18;102912.09;;;5.97;53.49
57990;BME280;58373;51.824;5.564;2023-04-04T09:54:45;102909.28;;;6.04;52.61
57990;BME280;58373;51.824;5.564;2023-04-04T09:57:18;102913.41;;;6.10;53.54
57990;BME280;58373;51.824;5.564;2023-04-04T09:59:44;102912.34;;;6.17;53.68
57990;BME280;58373;51.824;5.564;2023-04-04T10:02:10;102913.13;;;6.19;52.53
57990;BME280;58373;51.824;5.564;2023-04-04T10:04:36;102908.09;;;6.16;51.52
57990;BME280;58373;51.824;5.564;2023-04-04T10:07:01;102915.09;;;6.11;49.40
57990;BME280;58373;51.824;5.564;2023-04-04T10:09:27;102910.13;;;6.05;52.25
57990;BME280;58373;51.824;5.564;2023-04-04T10:11:53;102910.91;;;6.07;51.49
57990;BME280;58373;51.824;5.564;2023-04-04T10:14:33;102907.50;;;6.06;50.97
57990;BME280;58373;51.824;5.564;2023-04-04T10:16:58;102903.00;;;6.13;52.17
57990;BME280;58373;51.824;5.564;2023-04-04T10:19:25;102899.19;;;6.26;51.49
57990;BME280;58373;51.824;5.564;2023-04-04T10:21:50;102898.81;;;6.38;53.09
57990;BME280;58373;51.824;5.564;2023-04-04T10:24:15;102897.03;;;6.41;50.61
57990;BME280;58373;51.824;5.564;2023-04-04T10:26:43;102895.34;;;6.39;50.84
57990;BME280;58373;51.824;5.564;2023-04-04T10:29:08;102899.91;;;6.31;50.89
57990;BME280;58373;51.824;5.564;2023-04-04T10:31:35;102904.16;;;6.32;49.49
57990;BME280;58373;51.824;5.564;2023-04-04T10:36:33;102888.41;;;6.42;51.54
57990;BME280;58373;51.824;5.564;2023-04-04T10:39:02;102889.91;;;6.49;50.77
57990;BME280;58373;51.824;5.564;2023-04-04T10:41:29;102881.81;;;6.59;51.18
57990;BME280;58373;51.824;5.564;2023-04-04T10:43:55;102878.41;;;6.59;50.21
57990;BME280;58373;51.824;5.564;2023-04-04T10:46:24;102886.97;;;6.59;49.87
57990;BME280;58373;51.824;5.564;2023-04-04T10:48:54;102873.22;;;6.60;51.36
57990;BME280;58373;51.824;5.564;2023-04-04T10:51:19;102881.66;;;6.65;51.31
57990;BME280;58373;51.824;5.564;2023-04-04T10:53:45;102871.03;;;6.75;49.45
57990;BME280;58373;51.824;5.564;2023-04-04T10:56:10;102871.84;;;6.75;50.16
57990;BME280;58373;51.824;5.564;2023-04-04T10:58:39;102870.88;;;6.79;49.94
57990;BME280;58373;51.824;5.564;2023-04-04T11:01:06;102880.00;;;6.89;50.93
57990;BME280;58373;51.824;5.564;2023-04-04T11:03:31;102872.75;;;7.01;49.13
57990;BME280;58373;51.824;5.564;2023-04-04T11:05:57;102872.75;;;7.01;49.84
57990;BME280;58373;51.824;5.564;2023-04-04T11:08:26;102857.78;;;7.10;50.59
57990;BME280;58373;51.824;5.564;2023-04-04T11:10:53;102868.75;;;7.17;50.24
57990;BME280;58373;51.824;5.564;2023-04-04T11:13:19;102858.31;;;7.20;49.51
57990;BME280;58373;51.824;5.564;2023-04-04T11:15:57;102858.22;;;7.23;49.33
57990;BME280;58373;51.824;5.564;2023-04-04T11:21:12;102855.97;;;7.37;50.79
57990;BME280;58373;51.824;5.564;2023-04-04T11:24:05;102856.34;;;7.52;50.38
57990;BME280;58373;51.824;5.564;2023-04-04T11:28:55;102847.69;;;7.76;49.93
57990;BME280;58373;51.824;5.564;2023-04-04T11:31:21;102841.84;;;7.71;49.42
57990;BME280;58373;51.824;5.564;2023-04-04T11:34:05;102837.81;;;7.64;48.41
57990;BME280;58373;51.824;5.564;2023-04-04T11:36:52;102837.00;;;7.62;47.94
57990;BME280;58373;51.824;5.564;2023-04-04T11:44:21;102834.88;;;7.73;48.73
57990;BME280;58373;51.824;5.564;2023-04-04T11:46:48;102826.88;;;7.79;49.68
57990;BME280;58373;51.824;5.564;2023-04-04T11:49:18;102828.22;;;7.89;49.19
57990;BME280;58373;51.824;5.564;2023-04-04T11:51:43;102832.06;;;8.01;48.08
57990;BME280;58373;51.824;5.564;2023-04-04T11:54:13;102822.34;;;8.08;47.64
57990;BME280;58373;51.824;5.564;2023-04-04T11:56:40;102818.75;;;8.12;48.59
57990;BME280;58373;51.824;5.564;2023-04-04T11:59:05;102813.72;;;8.09;47.63
57990;BME280;58373;51.824;5.564;2023-04-04T12:01:31;102815.91;;;8.18;48.02
57990;BME280;58373;51.824;5.564;2023-04-04T12:03:58;102813.22;;;8.21;48.33
57990;BME280;58373;51.824;5.564;2023-04-04T12:06:23;102809.34;;;8.31;46.86
57990;BME280;58373;51.824;5.564;2023-04-04T12:08:49;102816.09;;;8.35;47.27
57990;BME280;58373;51.824;5.564;2023-04-04T12:11:14;102808.25;;;8.38;47.90
57990;BME280;58373;51.824;5.564;2023-04-04T12:13:43;102813.94;;;8.46;47.34
57990;BME280;58373;51.824;5.564;2023-04-04T12:16:08;102810.19;;;8.54;45.75
57990;BME280;58373;51.824;5.564;2023-04-04T12:18:35;102799.59;;;8.60;47.09
57990;BME280;58373;51.824;5.564;2023-04-04T12:21:00;102806.22;;;8.67;46.53
57990;BME280;58373;51.824;5.564;2023-04-04T12:23:26;102790.69;;;8.67;46.97
57990;BME280;58373;51.824;5.564;2023-04-04T12:25:53;102786.16;;;8.72;47.86
57990;BME280;58373;51.824;5.564;2023-04-04T12:28:19;102786.66;;;8.80;46.21
57990;BME280;58373;51.824;5.564;2023-04-04T12:30:45;102781.56;;;8.78;46.95
57990;BME280;58373;51.824;5.564;2023-04-04T12:33:11;102780.50;;;8.83;45.85
57990;BME280;58373;51.824;5.564;2023-04-04T12:35:36;102776.59;;;8.74;45.63
57990;BME280;58373;51.824;5.564;2023-04-04T12:38:02;102767.91;;;8.75;46.91
57990;BME280;58373;51.824;5.564;2023-04-04T12:40:28;102775.06;;;8.89;46.61
57990;BME280;58373;51.824;5.564;2023-04-04T12:42:55;102770.59;;;8.92;47.50
57990;BME280;58373;51.824;5.564;2023-04-04T12:45:21;102766.00;;;8.99;46.58
57990;BME280;58373;51.824;5.564;2023-04-04T12:47:55;102759.72;;;9.04;46.61
57990;BME280;58373;51.824;5.564;2023-04-04T12:50:23;102753.53;;;8.88;44.79
57990;BME280;58373;51.824;5.564;2023-04-04T12:52:50;102754.97;;;8.75;46.87
57990;BME280;58373;51.824;5.564;2023-04-04T12:55:16;102759.22;;;8.76;46.29
57990;BME280;58373;51.824;5.564;2023-04-04T12:57:44;102762.72;;;8.75;46.41
57990;BME280;58373;51.824;5.564;2023-04-04T13:00:10;102757.69;;;8.72;46.33
57990;BME280;58373;51.824;5.564;2023-04-04T13:02:38;102745.81;;;8.68;47.20
57990;BME280;58373;51.824;5.564;2023-04-04T13:05:04;102749.69;;;8.58;46.63
57990;BME280;58373;51.824;5.564;2023-04-04T13:07:32;102744.44;;;8.59;46.87
57990;BME280;58373;51.824;5.564;2023-04-04T13:09:59;102736.81;;;8.56;46.76
57990;BME280;58373;51.824;5.564;2023-04-04T13:12:26;102730.22;;;8.49;46.70
57990;BME280;58373;51.824;5.564;2023-04-04T13:15:11;102727.84;;;8.44;45.26
57990;BME280;58373;51.824;5.564;2023-04-04T13:17:44;102719.03;;;8.48;47.11